createdAt,value
2023-05-16T00:02:11.964Z,13.00
2023-05-16T00:04:39.543Z,14.80
2023-05-16T00:07:07.996Z,11.20
2023-05-16T00:09:35.760Z,14.20
2023-05-16T00:12:04.348Z,18.50
2023-05-16T00:14:31.892Z,14.70
2023-05-16T00:17:00.926Z,13.30
2023-05-16T00:19:29.921Z,10.80
2023-05-16T00:21:57.497Z,13.80
2023-05-16T00:24:25.772Z,14.10
2023-05-16T00:26:53.237Z,13.40
2023-05-16T00:29:21.853Z,13.10
2023-05-16T00:31:49.449Z,16.40
2023-05-16T00:34:21.155Z,14.30
2023-05-16T00:36:50.035Z,16.00
2023-05-16T00:39:17.567Z,15.70
2023-05-16T00:41:45.740Z,14.20
2023-05-16T00:44:13.315Z,15.80
2023-05-16T00:46:41.004Z,14.30
2023-05-16T00:49:09.062Z,16.90
2023-05-16T00:51:36.657Z,12.50
2023-05-16T00:54:04.234Z,15.70
2023-05-16T00:56:32.153Z,12.30
2023-05-16T00:59:00.143Z,16.50
2023-05-16T01:01:28.055Z,19.10
2023-05-16T01:03:55.621Z,17.50
2023-05-16T01:06:24.781Z,18.20
2023-05-16T01:08:52.318Z,16.20
2023-05-16T01:11:36.203Z,12.00
2023-05-16T01:14:12.408Z,14.80
2023-05-16T01:16:46.088Z,17.80
2023-05-16T01:19:43.016Z,14.70
2023-05-16T01:22:16.189Z,13.40
2023-05-16T01:24:56.399Z,16.30
2023-05-16T01:27:23.911Z,16.90
2023-05-16T01:29:56.028Z,15.50
2023-05-16T01:32:24.436Z,17.20
2023-05-16T01:34:52.032Z,14.40
2023-05-16T01:37:24.553Z,13.10
2023-05-16T01:40:02.284Z,16.00
2023-05-16T01:42:30.439Z,11.40
2023-05-16T01:45:07.112Z,17.20
2023-05-16T01:47:36.636Z,13.40
2023-05-16T01:50:14.091Z,15.30
2023-05-16T01:52:50.834Z,13.10
2023-05-16T01:55:48.095Z,14.00
2023-05-16T01:58:17.237Z,14.40
2023-05-16T02:00:44.730Z,13.70
2023-05-16T02:03:12.615Z,13.00
2023-05-16T02:05:40.344Z,14.10
2023-05-16T02:08:08.678Z,13.40
2023-05-16T02:10:36.636Z,10.70
2023-05-16T02:13:04.185Z,12.60
2023-05-16T02:15:32.412Z,10.40
2023-05-16T02:18:00.334Z,12.70
2023-05-16T02:20:27.977Z,7.10
2023-05-16T02:22:55.667Z,10.90
2023-05-16T02:25:23.594Z,9.40
2023-05-16T02:27:51.316Z,8.50
2023-05-16T02:30:18.922Z,6.30
2023-05-16T02:32:48.663Z,8.80
2023-05-16T02:35:17.568Z,7.30
2023-05-16T02:37:44.976Z,6.60
2023-05-16T02:40:13.206Z,7.90
2023-05-16T02:42:41.128Z,8.40
2023-05-16T02:45:10.436Z,9.50
2023-05-16T02:47:37.912Z,7.70
2023-05-16T02:50:06.873Z,10.00
2023-05-16T02:52:36.020Z,9.90
2023-05-16T02:55:20.912Z,10.90
2023-05-16T02:57:50.488Z,7.10
2023-05-16T03:00:18.790Z,9.20
2023-05-16T03:02:46.760Z,14.00
2023-05-16T03:05:14.636Z,10.40
2023-05-16T03:07:42.703Z,12.00
2023-05-16T03:10:10.832Z,7.10
2023-05-16T03:12:39.258Z,7.10
2023-05-16T03:15:08.979Z,6.70
2023-05-16T03:17:37.645Z,6.10
2023-05-16T03:20:08.632Z,8.60
2023-05-16T03:25:05.426Z,7.10
2023-05-16T03:27:33.097Z,11.80
2023-05-16T03:30:00.900Z,7.80
2023-05-16T03:32:28.447Z,7.00
2023-05-16T03:34:55.952Z,5.60
2023-05-16T03:37:24.319Z,7.20
2023-05-16T03:39:52.078Z,10.00
2023-05-16T03:42:19.740Z,6.80
2023-05-16T03:44:47.375Z,9.90
2023-05-16T03:47:14.606Z,9.70
2023-05-16T03:49:42.738Z,6.20
2023-05-16T03:52:10.245Z,6.90
2023-05-16T03:54:37.673Z,13.40
2023-05-16T03:57:05.797Z,9.30
2023-05-16T03:59:34.343Z,6.00
2023-05-16T04:02:01.866Z,9.20
2023-05-16T04:04:30.083Z,6.50
2023-05-16T04:06:57.758Z,6.60
2023-05-16T04:09:25.137Z,7.10
2023-05-16T04:11:52.570Z,6.30
2023-05-16T04:14:20.508Z,7.10
2023-05-16T04:16:47.973Z,9.20
2023-05-16T04:19:15.730Z,8.40
2023-05-16T04:21:43.186Z,9.40
2023-05-16T04:24:10.646Z,5.80
2023-05-16T04:26:38.112Z,6.10
2023-05-16T04:29:05.904Z,9.30
2023-05-16T04:31:33.400Z,22.20
2023-05-16T04:34:01.191Z,18.50
2023-05-16T04:36:29.938Z,25.80
2023-05-16T04:38:57.585Z,19.70
2023-05-16T04:41:25.127Z,10.70
2023-05-16T04:43:53.491Z,9.10
2023-05-16T04:46:20.968Z,6.20
2023-05-16T04:48:48.929Z,6.00
2023-05-16T04:51:16.299Z,8.30
2023-05-16T04:53:43.996Z,6.40
2023-05-16T04:56:11.737Z,9.70
2023-05-16T04:58:41.068Z,5.90
2023-05-16T05:01:10.496Z,6.70
2023-05-16T05:03:38.049Z,6.80
2023-05-16T05:06:06.671Z,4.80
2023-05-16T05:08:34.300Z,6.80
2023-05-16T05:11:01.956Z,7.40
2023-05-16T05:13:29.602Z,7.20
2023-05-16T05:15:57.221Z,8.00
2023-05-16T05:18:24.824Z,8.00
2023-05-16T05:20:52.453Z,7.70
2023-05-16T05:23:20.590Z,7.40
2023-05-16T05:25:48.034Z,7.20
2023-05-16T05:28:16.019Z,5.80
2023-05-16T05:30:43.575Z,6.60
2023-05-16T05:33:14.780Z,5.10
2023-05-16T05:35:42.319Z,12.50
2023-05-16T05:38:10.836Z,7.40
2023-05-16T05:40:38.414Z,7.80
2023-05-16T05:43:06.206Z,5.30
2023-05-16T05:45:33.928Z,6.20
2023-05-16T05:48:01.702Z,8.80
2023-05-16T05:50:29.568Z,10.10
2023-05-16T05:52:57.010Z,7.90
2023-05-16T05:55:24.564Z,9.20
2023-05-16T05:57:52.275Z,6.70
2023-05-16T06:00:19.732Z,8.90
2023-05-16T06:02:47.954Z,9.10
2023-05-16T06:05:16.065Z,7.90
2023-05-16T06:07:43.597Z,6.50
2023-05-16T06:10:11.079Z,9.00
2023-05-16T06:12:39.192Z,5.20
2023-05-16T06:15:07.702Z,8.60
2023-05-16T06:17:36.049Z,6.00
2023-05-16T06:20:03.852Z,10.10
2023-05-16T06:22:32.434Z,7.40
2023-05-16T06:25:00.148Z,10.20
2023-05-16T06:27:27.655Z,9.00
2023-05-16T06:29:55.191Z,10.90
2023-05-16T06:32:22.686Z,6.80
2023-05-16T06:34:50.304Z,11.10
2023-05-16T06:37:17.912Z,7.60
2023-05-16T06:39:45.327Z,7.20
2023-05-16T06:42:13.007Z,13.10
2023-05-16T06:44:40.928Z,14.40
2023-05-16T06:47:08.587Z,11.50
2023-05-16T06:49:36.274Z,8.60
2023-05-16T06:52:04.149Z,6.90
2023-05-16T06:54:32.072Z,7.50
2023-05-16T06:56:59.548Z,8.90
2023-05-16T06:59:28.123Z,11.80
2023-05-16T07:01:55.974Z,12.90
2023-05-16T07:04:23.597Z,16.40
2023-05-16T07:06:51.033Z,11.10
2023-05-16T07:09:19.137Z,17.50
2023-05-16T07:11:46.788Z,7.50
2023-05-16T07:14:14.216Z,10.70
2023-05-16T07:16:41.951Z,9.10
2023-05-16T07:19:10.308Z,7.10
2023-05-16T07:21:38.329Z,8.20
2023-05-16T07:24:06.437Z,14.80
2023-05-16T07:26:33.946Z,9.20
2023-05-16T07:29:02.659Z,6.00
2023-05-16T07:31:31.094Z,11.10
2023-05-16T07:33:58.695Z,16.90
2023-05-16T07:36:26.314Z,19.10
2023-05-16T07:38:53.889Z,20.50
2023-05-16T07:41:21.860Z,17.40
2023-05-16T07:43:49.359Z,16.50
2023-05-16T07:46:16.892Z,12.30
2023-05-16T07:48:44.401Z,12.70
2023-05-16T07:51:12.251Z,9.10
2023-05-16T07:53:40.218Z,9.30
2023-05-16T07:56:08.729Z,9.10
2023-05-16T07:58:36.549Z,8.70
2023-05-16T08:01:04.310Z,11.00
2023-05-16T08:03:32.860Z,6.20
2023-05-16T08:06:00.764Z,7.30
2023-05-16T08:08:29.079Z,8.90
2023-05-16T08:10:56.719Z,7.10
2023-05-16T08:13:24.457Z,4.50
2023-05-16T08:15:52.436Z,4.80
2023-05-16T08:18:22.460Z,6.60
2023-05-16T08:20:51.152Z,6.40
2023-05-16T08:23:18.996Z,5.10
2023-05-16T08:25:46.731Z,9.10
2023-05-16T08:28:15.091Z,6.40
2023-05-16T08:30:43.418Z,6.00
2023-05-16T08:33:11.915Z,4.50
2023-05-16T08:35:43.960Z,5.20
2023-05-16T08:38:11.607Z,7.10
2023-05-16T08:40:39.957Z,7.90
2023-05-16T08:43:07.594Z,8.40
2023-05-16T08:45:35.436Z,5.80
2023-05-16T08:48:03.446Z,9.20
2023-05-16T08:50:32.221Z,5.50
2023-05-16T08:53:02.016Z,5.20
2023-05-16T08:55:29.662Z,5.90
2023-05-16T08:57:58.016Z,8.10
2023-05-16T09:00:25.718Z,7.30
2023-05-16T09:02:53.554Z,8.60
2023-05-16T09:05:21.790Z,6.70
2023-05-16T09:07:50.325Z,6.00
2023-05-16T09:10:18.163Z,6.90
2023-05-16T09:12:45.968Z,6.10
2023-05-16T09:15:13.781Z,7.80
2023-05-16T09:17:46.435Z,8.40
2023-05-16T09:20:16.201Z,7.40
2023-05-16T09:22:51.827Z,9.70
2023-05-16T09:25:29.472Z,7.10
2023-05-16T09:28:00.968Z,5.90
2023-05-16T09:30:30.200Z,6.20
2023-05-16T09:32:59.033Z,5.60
2023-05-16T09:37:57.446Z,6.20
2023-05-16T09:40:25.387Z,9.30
2023-05-16T09:43:14.636Z,8.10
2023-05-16T09:45:46.003Z,6.10
2023-05-16T09:48:14.456Z,9.10
2023-05-16T09:50:46.355Z,6.10
2023-05-16T09:53:13.993Z,9.20
2023-05-16T09:55:41.745Z,6.30
2023-05-16T09:58:09.654Z,7.40
2023-05-16T10:00:37.882Z,7.70
2023-05-16T10:03:06.357Z,6.50
2023-05-16T10:05:34.576Z,8.10
2023-05-16T10:08:02.884Z,5.80
2023-05-16T10:10:30.662Z,5.60
2023-05-16T10:12:59.013Z,5.90
2023-05-16T10:15:27.344Z,9.80
2023-05-16T10:17:56.264Z,5.60
2023-05-16T10:20:24.071Z,5.50
2023-05-16T10:22:51.650Z,5.30
2023-05-16T10:25:33.286Z,6.00
2023-05-16T10:28:04.053Z,6.20
2023-05-16T10:30:34.346Z,4.00
2023-05-16T10:33:02.440Z,5.20
2023-05-16T10:35:31.452Z,5.70
2023-05-16T10:37:59.001Z,6.40
2023-05-16T10:40:27.080Z,5.40
2023-05-16T10:43:00.742Z,7.70
2023-05-16T10:45:28.755Z,6.40
2023-05-16T10:48:01.254Z,5.20
2023-05-16T10:50:39.555Z,7.60
2023-05-16T10:53:18.491Z,7.00
2023-05-16T10:56:01.732Z,5.50
2023-05-16T10:58:38.850Z,6.70
2023-05-16T11:01:20.454Z,5.40
2023-05-16T11:06:42.415Z,6.90
2023-05-16T11:09:16.071Z,8.40
2023-05-16T11:11:53.275Z,6.30
2023-05-16T11:14:31.928Z,5.50
2023-05-16T11:17:15.854Z,9.90
2023-05-16T11:19:55.797Z,6.40
2023-05-16T11:22:30.222Z,7.10
2023-05-16T11:25:07.486Z,7.80
2023-05-16T11:27:37.439Z,9.80
2023-05-16T11:30:05.186Z,6.70
2023-05-16T11:32:34.675Z,5.90
2023-05-16T11:35:03.681Z,9.40
2023-05-16T11:37:31.343Z,5.80
2023-05-16T11:40:09.668Z,6.10
2023-05-16T11:42:42.531Z,5.00
2023-05-16T11:45:29.032Z,12.10
2023-05-16T11:48:04.294Z,7.30
2023-05-16T11:50:34.099Z,6.80
2023-05-16T11:53:02.122Z,6.50
2023-05-16T11:55:41.414Z,8.10
2023-05-16T11:58:14.142Z,8.80
2023-05-16T12:00:49.639Z,6.00
2023-05-16T12:03:18.612Z,9.80
2023-05-16T12:05:53.249Z,5.70
2023-05-16T12:08:25.076Z,9.10
2023-05-16T12:10:53.336Z,5.80
2023-05-16T12:13:23.174Z,5.70
2023-05-16T12:15:52.509Z,6.10
2023-05-16T12:18:21.565Z,6.50
2023-05-16T12:20:49.479Z,6.30
2023-05-16T12:23:17.415Z,5.70
2023-05-16T12:25:46.406Z,8.00
2023-05-16T12:28:14.496Z,5.30
2023-05-16T12:30:43.052Z,8.10
2023-05-16T12:33:12.820Z,7.40
2023-05-16T12:35:42.092Z,9.40
2023-05-16T12:38:11.937Z,9.20
2023-05-16T12:40:42.498Z,6.70
2023-05-16T12:43:16.890Z,8.30
2023-05-16T12:45:50.707Z,9.20
2023-05-16T12:48:18.566Z,8.40
2023-05-16T12:50:46.330Z,7.50
2023-05-16T12:53:14.547Z,7.00
2023-05-16T12:55:42.809Z,6.80
2023-05-16T12:58:11.303Z,7.30
2023-05-16T13:00:39.158Z,9.10
2023-05-16T13:03:07.506Z,7.00
2023-05-16T13:05:35.869Z,5.80
2023-05-16T13:08:04.135Z,6.40
2023-05-16T13:10:31.937Z,5.80
2023-05-16T13:12:59.653Z,8.90
2023-05-16T13:15:27.482Z,8.70
2023-05-16T13:17:55.599Z,6.50
2023-05-16T13:20:23.483Z,7.20
2023-05-16T13:22:50.930Z,7.10
2023-05-16T13:25:20.079Z,5.30
2023-05-16T13:27:49.181Z,5.00
2023-05-16T13:30:16.790Z,8.40
2023-05-16T13:32:44.636Z,7.80
2023-05-16T13:35:12.147Z,7.70
2023-05-16T13:37:41.188Z,7.80
2023-05-16T13:40:10.012Z,8.70
2023-05-16T13:42:38.418Z,6.20
2023-05-16T13:45:06.893Z,7.80
2023-05-16T13:47:36.598Z,6.40
2023-05-16T13:50:08.906Z,9.80
2023-05-16T13:52:38.124Z,6.40
2023-05-16T13:55:06.573Z,6.70
2023-05-16T13:57:35.762Z,6.80
2023-05-16T14:00:35.104Z,8.80
2023-05-16T14:02:59.768Z,6.50
2023-05-16T14:05:28.711Z,5.60
2023-05-16T14:07:56.436Z,7.50
2023-05-16T14:10:24.357Z,8.50
2023-05-16T14:12:52.044Z,4.20
2023-05-16T14:15:21.024Z,7.90
2023-05-16T14:17:48.475Z,8.40
2023-05-16T14:20:16.340Z,5.70
2023-05-16T14:22:44.242Z,7.30
2023-05-16T14:25:11.717Z,7.90
2023-05-16T14:27:40.044Z,6.00
2023-05-16T14:30:09.336Z,9.70
2023-05-16T14:32:37.971Z,6.00
2023-05-16T14:35:06.419Z,4.50
2023-05-16T14:37:34.073Z,4.60
2023-05-16T14:40:02.154Z,5.60
2023-05-16T14:42:29.934Z,5.00
2023-05-16T14:44:57.693Z,8.80
2023-05-16T14:47:25.264Z,5.50
2023-05-16T14:49:54.099Z,5.40
2023-05-16T14:52:22.430Z,6.10
2023-05-16T14:54:49.896Z,6.50
2023-05-16T14:57:17.519Z,7.50
2023-05-16T14:59:45.273Z,5.90
2023-05-16T15:02:12.895Z,5.90
2023-05-16T15:04:40.655Z,8.10
2023-05-16T15:07:08.282Z,6.10
2023-05-16T15:09:36.370Z,4.70
2023-05-16T15:12:06.280Z,6.50
2023-05-16T15:14:33.893Z,4.40
2023-05-16T15:17:01.502Z,5.00
2023-05-16T15:19:29.414Z,7.20
2023-05-16T15:21:57.339Z,9.00
2023-05-16T15:24:24.791Z,5.70
2023-05-16T15:26:52.777Z,9.50
2023-05-16T15:29:20.856Z,11.20
2023-05-16T15:31:48.313Z,47.40
2023-05-16T15:34:15.841Z,17.40
2023-05-16T15:36:43.216Z,11.40
2023-05-16T15:39:10.674Z,8.80
2023-05-16T15:42:05.165Z,8.10
2023-05-16T15:44:26.219Z,6.40
2023-05-16T15:46:53.905Z,4.40
2023-05-16T15:49:22.043Z,5.50
2023-05-16T15:51:50.564Z,7.60
2023-05-16T15:54:17.919Z,4.00
2023-05-16T15:56:45.429Z,5.90
2023-05-16T15:59:13.289Z,9.10
2023-05-16T16:01:41.151Z,5.60
2023-05-16T16:04:08.761Z,7.00
2023-05-16T16:06:36.256Z,6.80
2023-05-16T16:09:03.887Z,5.90
2023-05-16T16:11:32.851Z,6.60
2023-05-16T16:14:00.499Z,6.20
2023-05-16T16:16:28.243Z,4.30
2023-05-16T16:18:55.892Z,3.80
2023-05-16T16:21:23.710Z,5.20
2023-05-16T16:23:51.403Z,6.10
2023-05-16T16:26:18.885Z,5.40
2023-05-16T16:28:46.955Z,5.60
2023-05-16T16:31:14.516Z,5.10
2023-05-16T16:33:42.085Z,4.30
2023-05-16T16:36:09.868Z,3.30
2023-05-16T16:38:37.432Z,6.00
2023-05-16T16:41:04.874Z,6.50
2023-05-16T16:43:33.888Z,4.40
2023-05-16T16:46:01.391Z,5.00
2023-05-16T16:48:29.056Z,10.00
2023-05-16T16:50:56.535Z,8.70
2023-05-16T16:53:24.477Z,6.40
2023-05-16T16:55:52.936Z,8.00
2023-05-16T16:58:21.125Z,4.50
2023-05-16T17:00:49.268Z,8.30
2023-05-16T17:03:17.701Z,6.40
2023-05-16T17:05:45.309Z,5.90
2023-05-16T17:08:13.116Z,9.90
2023-05-16T17:10:40.756Z,7.60
2023-05-16T17:13:10.555Z,8.00
2023-05-16T17:15:38.476Z,7.60
2023-05-16T17:18:09.119Z,5.60
2023-05-16T17:20:36.644Z,7.30
2023-05-16T17:23:04.349Z,6.80
2023-05-16T17:25:32.189Z,11.00
2023-05-16T17:28:00.077Z,6.20
2023-05-16T17:30:27.690Z,5.30
2023-05-16T17:32:55.573Z,7.80
2023-05-16T17:35:23.617Z,8.40
2023-05-16T17:37:51.306Z,9.00
2023-05-16T17:40:18.955Z,8.60
2023-05-16T17:42:46.816Z,6.20
2023-05-16T17:45:15.688Z,8.60
2023-05-16T17:47:44.213Z,9.10
2023-05-16T17:50:12.273Z,8.00
2023-05-16T17:52:40.389Z,7.00
2023-05-16T17:55:09.351Z,7.50
2023-05-16T17:57:38.005Z,9.60
2023-05-16T18:00:07.061Z,6.00
2023-05-16T18:02:38.162Z,6.60
2023-05-16T18:05:07.018Z,6.10
2023-05-16T18:07:35.632Z,9.20
2023-05-16T18:10:03.993Z,5.80
2023-05-16T18:12:32.242Z,9.60
2023-05-16T18:14:59.910Z,7.00
2023-05-16T18:17:27.935Z,10.70
2023-05-16T18:19:55.756Z,8.20
2023-05-16T18:22:23.709Z,9.20
2023-05-16T18:24:51.863Z,8.20
2023-05-16T18:27:19.612Z,6.70
2023-05-16T18:29:47.550Z,12.20
2023-05-16T18:32:16.072Z,8.70
2023-05-16T18:34:44.147Z,10.70
2023-05-16T18:37:11.853Z,7.00
2023-05-16T18:39:41.510Z,10.30
2023-05-16T18:42:10.302Z,10.90
2023-05-16T18:44:37.925Z,8.60
2023-05-16T18:47:06.203Z,10.20
2023-05-16T18:49:38.735Z,9.00
2023-05-16T18:52:10.499Z,8.30
2023-05-16T18:57:06.717Z,8.20
2023-05-16T18:59:35.857Z,8.90
2023-05-16T19:02:04.397Z,7.50
2023-05-16T19:04:32.682Z,7.50
2023-05-16T19:07:03.031Z,10.80
2023-05-16T19:09:32.503Z,6.60
2023-05-16T19:11:59.945Z,7.40
2023-05-16T19:14:28.089Z,12.90
2023-05-16T19:16:55.868Z,4.20
2023-05-16T19:19:24.191Z,6.00
2023-05-16T19:21:52.301Z,8.90
2023-05-16T19:24:19.837Z,7.90
2023-05-16T19:26:47.262Z,6.90
2023-05-16T19:29:14.806Z,8.60
2023-05-16T19:31:42.258Z,7.50
2023-05-16T19:34:09.966Z,7.80
2023-05-16T19:36:37.946Z,6.70
2023-05-16T19:39:05.817Z,8.30
2023-05-16T19:41:34.046Z,8.40
2023-05-16T19:44:01.480Z,5.70
2023-05-16T19:46:29.332Z,8.10
2023-05-16T19:48:57.085Z,6.80
2023-05-16T19:51:40.209Z,7.00
2023-05-16T19:54:09.132Z,7.40
2023-05-16T19:56:36.803Z,7.90
2023-05-16T19:59:04.267Z,7.60
2023-05-16T20:01:33.580Z,7.60
2023-05-16T20:04:02.299Z,8.00
2023-05-16T20:06:31.335Z,11.10
2023-05-16T20:08:58.888Z,12.20
2023-05-16T20:11:26.585Z,11.20
2023-05-16T20:13:55.515Z,10.90
2023-05-16T20:16:23.150Z,15.20
2023-05-16T20:18:51.285Z,12.50
2023-05-16T20:21:19.231Z,12.10
2023-05-16T20:23:46.690Z,13.90
2023-05-16T20:26:15.017Z,15.40
2023-05-16T20:28:42.506Z,15.40
2023-05-16T20:31:09.910Z,13.00
2023-05-16T20:33:37.553Z,9.10
2023-05-16T20:36:05.528Z,13.90
2023-05-16T20:38:33.079Z,14.30
2023-05-16T20:41:00.706Z,9.10
2023-05-16T20:43:28.118Z,9.00
2023-05-16T20:45:56.107Z,15.90
2023-05-16T20:48:23.732Z,15.20
2023-05-16T20:50:54.741Z,15.00
2023-05-16T20:53:22.542Z,11.30
2023-05-16T20:55:50.083Z,12.30
2023-05-16T20:58:17.553Z,12.20
2023-05-16T21:00:44.968Z,15.10
2023-05-16T21:03:12.843Z,16.90
2023-05-16T21:05:40.825Z,12.10
2023-05-16T21:08:09.013Z,11.80
2023-05-16T21:10:36.437Z,15.00
2023-05-16T21:13:03.970Z,12.70
2023-05-16T21:15:31.601Z,12.00
2023-05-16T21:17:59.245Z,14.80
2023-05-16T21:20:29.813Z,11.70
2023-05-16T21:22:57.481Z,14.90
2023-05-16T21:25:25.181Z,12.20
2023-05-16T21:27:53.175Z,13.30
2023-05-16T21:30:20.707Z,13.20
2023-05-16T21:32:48.544Z,12.60
2023-05-16T21:35:16.233Z,13.70
2023-05-16T21:37:44.275Z,12.60
2023-05-16T21:40:18.694Z,13.60
2023-05-16T21:42:46.287Z,11.70
2023-05-16T21:45:16.218Z,11.50
2023-05-16T21:47:43.859Z,12.80
2023-05-16T21:50:11.967Z,16.40
2023-05-16T21:52:39.591Z,12.60
2023-05-16T21:55:07.890Z,14.10
2023-05-16T21:57:35.581Z,14.70
2023-05-16T22:00:06.459Z,15.20
2023-05-16T22:02:36.535Z,13.20
2023-05-16T22:05:04.658Z,16.10
2023-05-16T22:07:32.670Z,12.90
2023-05-16T22:10:00.820Z,12.70
2023-05-16T22:12:29.466Z,14.10
2023-05-16T22:14:57.265Z,11.00
2023-05-16T22:17:25.002Z,14.90
2023-05-16T22:19:52.796Z,15.10
2023-05-16T22:22:20.560Z,16.50
2023-05-16T22:24:48.390Z,9.50
2023-05-16T22:27:15.922Z,14.10
2023-05-16T22:29:43.563Z,11.20
2023-05-16T22:32:11.456Z,16.10
2023-05-16T22:34:39.418Z,15.70
2023-05-16T22:37:08.182Z,14.20
2023-05-16T22:39:36.100Z,15.60
2023-05-16T22:42:04.018Z,12.50
2023-05-16T22:44:31.863Z,10.70
2023-05-16T22:46:59.430Z,10.20
2023-05-16T22:49:26.914Z,11.50
2023-05-16T22:51:54.497Z,11.40
2023-05-16T22:54:22.096Z,15.60
2023-05-16T22:56:49.562Z,12.70
2023-05-16T22:59:17.035Z,9.90
2023-05-16T23:01:44.617Z,14.10
2023-05-16T23:04:12.294Z,16.10
2023-05-16T23:06:40.192Z,13.90
2023-05-16T23:09:08.181Z,15.40
2023-05-16T23:11:35.809Z,10.10
2023-05-16T23:14:03.837Z,10.70
2023-05-16T23:16:31.455Z,9.80
2023-05-16T23:18:59.292Z,10.20
2023-05-16T23:21:27.248Z,9.20
2023-05-16T23:23:54.775Z,11.90
2023-05-16T23:26:23.279Z,11.80
2023-05-16T23:28:51.201Z,11.10
2023-05-16T23:31:19.020Z,10.10
2023-05-16T23:33:46.555Z,9.50
2023-05-16T23:36:14.431Z,12.60
2023-05-16T23:38:42.369Z,9.40
2023-05-16T23:41:10.602Z,9.80
2023-05-16T23:43:38.243Z,9.20
2023-05-16T23:46:06.202Z,8.30
2023-05-16T23:48:36.347Z,10.80
2023-05-16T23:51:07.240Z,8.30
2023-05-16T23:53:35.397Z,8.60
2023-05-16T23:56:03.104Z,13.30
2023-05-16T23:58:31.379Z,7.40
